createdAt,value
2018-07-09T00:00:09.993Z,0
2018-07-09T00:01:12.307Z,0
2018-07-09T00:02:14.661Z,0
2018-07-09T00:03:16.988Z,0
2018-07-09T00:04:19.026Z,0
2018-07-09T00:05:21.056Z,0
2018-07-09T00:06:23.101Z,0
2018-07-09T00:07:25.134Z,0
2018-07-09T00:08:27.179Z,0
2018-07-09T00:09:29.217Z,0
2018-07-09T00:10:31.262Z,0
2018-07-09T00:11:33.693Z,0
2018-07-09T00:12:35.729Z,0
2018-07-09T00:13:37.772Z,0
2018-07-09T00:14:40.103Z,0
2018-07-09T00:15:42.149Z,0
2018-07-09T00:16:44.583Z,0
2018-07-09T00:17:46.617Z,0
2018-07-09T00:18:48.658Z,0
2018-07-09T00:19:50.691Z,0
2018-07-09T00:20:52.731Z,0
2018-07-09T00:21:54.769Z,0
2018-07-09T00:22:56.799Z,0
2018-07-09T00:23:58.852Z,0
2018-07-09T00:25:00.883Z,0
2018-07-09T00:26:03.636Z,0
2018-07-09T00:27:05.960Z,0
2018-07-09T00:28:07.997Z,0
2018-07-09T00:29:10.041Z,0
2018-07-09T00:30:12.069Z,0
2018-07-09T00:31:14.121Z,0
2018-07-09T00:32:16.175Z,0
2018-07-09T00:33:18.580Z,0
2018-07-09T00:34:20.624Z,0
2018-07-09T00:35:22.661Z,0
2018-07-09T00:36:24.699Z,0
2018-07-09T00:37:27.122Z,0
2018-07-09T00:38:29.157Z,0
2018-07-09T00:39:31.207Z,0
2018-07-09T00:40:33.244Z,0
2018-07-09T00:41:35.285Z,0
2018-07-09T00:42:37.617Z,0
2018-07-09T00:43:39.651Z,0
2018-07-09T00:44:41.694Z,0
2018-07-09T00:45:43.723Z,0
2018-07-09T00:46:46.438Z,0
2018-07-09T00:47:48.470Z,0
2018-07-09T00:48:50.530Z,0
2018-07-09T00:49:52.541Z,0
2018-07-09T00:50:54.597Z,0
2018-07-09T00:51:56.619Z,0
2018-07-09T00:52:58.655Z,0
2018-07-09T00:54:00.688Z,0
2018-07-09T00:55:03.010Z,0
2018-07-09T00:56:05.047Z,0
2018-07-09T00:57:07.097Z,0
2018-07-09T00:58:09.185Z,0
2018-07-09T00:59:11.218Z,0
2018-07-09T01:00:13.258Z,0
2018-07-09T01:01:15.288Z,0
2018-07-09T01:02:17.333Z,0
2018-07-09T01:03:19.371Z,0
2018-07-09T01:04:21.425Z,0
2018-07-09T01:05:23.461Z,0
2018-07-09T01:06:25.867Z,0
2018-07-09T01:07:28.296Z,0
2018-07-09T01:08:30.333Z,0
2018-07-09T01:09:32.375Z,0
2018-07-09T01:10:34.400Z,0
2018-07-09T01:11:36.450Z,0
2018-07-09T01:12:38.489Z,0
2018-07-09T01:13:40.516Z,0
2018-07-09T01:14:42.560Z,0
2018-07-09T01:15:44.598Z,0
2018-07-09T01:16:47.019Z,0
2018-07-09T01:17:49.054Z,0
2018-07-09T01:18:51.090Z,0
2018-07-09T01:19:53.416Z,0
2018-07-09T01:20:55.450Z,0
2018-07-09T01:21:57.492Z,0
2018-07-09T01:22:59.814Z,0
2018-07-09T01:24:02.143Z,0
2018-07-09T01:25:04.749Z,0
2018-07-09T01:26:06.781Z,0
2018-07-09T01:27:09.112Z,0
2018-07-09T01:28:11.437Z,0
2018-07-09T01:29:13.754Z,0
2018-07-09T01:30:15.798Z,0
2018-07-09T01:31:17.825Z,0
2018-07-09T01:32:19.871Z,0
2018-07-09T01:33:21.908Z,0
2018-07-09T01:34:23.946Z,0
2018-07-09T01:35:25.979Z,0
2018-07-09T01:36:28.605Z,0
2018-07-09T01:37:31.024Z,0
2018-07-09T01:38:33.056Z,0
2018-07-09T01:39:35.090Z,0
2018-07-09T01:40:37.439Z,0
2018-07-09T01:41:39.772Z,0
2018-07-09T01:42:42.204Z,0
2018-07-09T01:43:44.235Z,0
2018-07-09T01:44:46.275Z,0
2018-07-09T01:45:48.299Z,0
2018-07-09T01:46:50.346Z,0
2018-07-09T01:47:52.371Z,0
2018-07-09T01:48:54.411Z,0
2018-07-09T01:49:56.446Z,0
2018-07-09T01:50:58.481Z,0
2018-07-09T01:52:00.915Z,0
2018-07-09T01:53:02.956Z,0
2018-07-09T01:54:04.980Z,0
2018-07-09T01:55:07.304Z,0
2018-07-09T01:56:09.335Z,0
2018-07-09T01:57:11.371Z,0
2018-07-09T01:58:13.409Z,0
2018-07-09T01:59:15.453Z,0
2018-07-09T02:00:17.490Z,0
2018-07-09T02:01:19.817Z,0
2018-07-09T02:02:21.844Z,0
2018-07-09T02:03:24.201Z,0
2018-07-09T02:04:26.519Z,0
2018-07-09T02:05:28.552Z,0
2018-07-09T02:06:30.592Z,0
2018-07-09T02:07:32.906Z,0
2018-07-09T02:08:35.318Z,0
2018-07-09T02:09:37.360Z,4
2018-07-09T02:10:39.406Z,4
2018-07-09T02:11:41.723Z,4
2018-07-09T02:12:43.757Z,4
2018-07-09T02:13:45.798Z,0
2018-07-09T02:14:47.832Z,4
2018-07-09T02:15:49.859Z,4
2018-07-09T02:16:51.894Z,4
2018-07-09T02:17:53.942Z,8
2018-07-09T02:18:55.973Z,4
2018-07-09T02:19:58.018Z,8
2018-07-09T02:21:00.372Z,8
2018-07-09T02:22:02.404Z,8
2018-07-09T02:23:04.434Z,12
2018-07-09T02:24:06.466Z,8
2018-07-09T02:25:08.505Z,12
2018-07-09T02:26:10.546Z,16
2018-07-09T02:27:12.581Z,16
2018-07-09T02:28:14.627Z,16
2018-07-09T02:29:16.664Z,20
2018-07-09T02:30:19.091Z,20
2018-07-09T02:31:21.135Z,24
2018-07-09T02:32:23.177Z,32
2018-07-09T02:33:25.494Z,32
2018-07-09T02:34:27.913Z,36
2018-07-09T02:35:29.943Z,44
2018-07-09T02:36:31.996Z,44
2018-07-09T02:37:34.023Z,52
2018-07-09T02:38:36.068Z,56
2018-07-09T02:39:38.381Z,64
2018-07-09T02:40:41.790Z,76
2018-07-09T02:41:44.104Z,84
2018-07-09T02:42:46.822Z,92
2018-07-09T02:43:49.617Z,100
2018-07-09T02:44:51.943Z,112
2018-07-09T02:45:54.559Z,124
2018-07-09T02:46:57.174Z,136
2018-07-09T02:47:59.599Z,148
2018-07-09T02:49:01.660Z,160
2018-07-09T02:50:04.077Z,176
2018-07-09T02:51:06.111Z,192
2018-07-09T02:52:08.424Z,212
2018-07-09T02:53:10.768Z,232
2018-07-09T02:54:12.803Z,248
2018-07-09T02:55:14.838Z,268
2018-07-09T02:56:16.878Z,288
2018-07-09T02:57:19.593Z,312
2018-07-09T02:58:22.221Z,340
2018-07-09T02:59:24.262Z,364
2018-07-09T03:00:26.304Z,392
2018-07-09T03:01:28.953Z,416
2018-07-09T03:02:31.262Z,444
2018-07-09T03:03:33.305Z,476
2018-07-09T03:04:35.343Z,504
2018-07-09T03:05:37.377Z,536
2018-07-09T03:06:40.087Z,568
2018-07-09T03:07:42.116Z,604
2018-07-09T03:08:44.155Z,640
2018-07-09T03:09:46.184Z,676
2018-07-09T03:10:48.495Z,716
2018-07-09T03:11:50.533Z,756
2018-07-09T03:12:52.849Z,792
2018-07-09T03:13:55.268Z,832
2018-07-09T03:14:57.311Z,880
2018-07-09T03:15:59.372Z,932
2018-07-09T03:17:01.390Z,980
2018-07-09T03:18:03.707Z,1036
2018-07-09T03:19:06.182Z,1080
2018-07-09T03:20:08.160Z,1132
2018-07-09T03:21:10.481Z,1180
2018-07-09T03:22:12.511Z,1232
2018-07-09T03:23:14.563Z,1280
2018-07-09T03:24:16.873Z,1328
2018-07-09T03:25:19.187Z,1372
2018-07-09T03:26:21.625Z,1428
2018-07-09T03:27:23.656Z,1484
2018-07-09T03:28:25.695Z,1540
2018-07-09T03:29:27.730Z,1596
2018-07-09T03:30:29.781Z,1664
2018-07-09T03:31:31.814Z,1728
2018-07-09T03:32:34.128Z,1800
2018-07-09T03:33:36.173Z,1876
2018-07-09T03:34:38.486Z,1956
2018-07-09T03:35:41.083Z,2040
2018-07-09T03:36:43.407Z,2120
2018-07-09T03:37:45.450Z,2204
2018-07-09T03:38:47.488Z,2284
2018-07-09T03:39:49.524Z,2368
2018-07-09T03:40:51.557Z,2452
2018-07-09T03:41:53.602Z,2528
2018-07-09T03:42:56.192Z,2604
2018-07-09T03:43:58.215Z,2684
2018-07-09T03:45:00.258Z,2768
2018-07-09T03:46:02.291Z,2856
2018-07-09T03:47:04.613Z,2944
2018-07-09T03:48:06.649Z,3032
2018-07-09T03:49:08.676Z,3128
2018-07-09T03:50:10.705Z,3228
2018-07-09T03:51:13.010Z,3316
2018-07-09T03:52:15.061Z,3400
2018-07-09T03:53:17.091Z,3484
2018-07-09T03:54:19.508Z,3568
2018-07-09T03:55:21.859Z,3656
2018-07-09T03:56:23.897Z,3728
2018-07-09T03:57:25.928Z,3788
2018-07-09T03:58:27.968Z,3844
2018-07-09T03:59:29.987Z,3900
2018-07-09T04:00:32.027Z,3952
2018-07-09T04:01:34.061Z,3980
2018-07-09T04:02:36.097Z,4004
2018-07-09T04:03:38.136Z,4012
2018-07-09T04:04:40.163Z,3996
2018-07-09T04:05:42.193Z,3964
2018-07-09T04:06:44.247Z,3964
2018-07-09T04:07:46.308Z,4004
2018-07-09T04:08:48.351Z,4008
2018-07-09T04:09:50.387Z,4056
2018-07-09T04:10:52.424Z,4152
2018-07-09T04:11:54.459Z,4240
2018-07-09T04:12:56.495Z,4304
2018-07-09T04:13:58.542Z,4320
2018-07-09T04:15:00.585Z,4416
2018-07-09T04:16:02.618Z,4528
2018-07-09T04:17:04.660Z,4628
2018-07-09T04:18:06.691Z,4660
2018-07-09T04:19:08.726Z,4672
2018-07-09T04:20:11.144Z,4728
2018-07-09T04:21:13.180Z,4744
2018-07-09T04:22:15.222Z,4820
2018-07-09T04:23:17.252Z,4916
2018-07-09T04:24:19.291Z,4932
2018-07-09T04:25:21.722Z,4924
2018-07-09T04:26:24.061Z,4840
2018-07-09T04:27:26.096Z,4824
2018-07-09T04:28:28.408Z,4720
2018-07-09T04:29:30.448Z,4940
2018-07-09T04:30:32.872Z,4956
2018-07-09T04:31:34.902Z,4804
2018-07-09T04:32:36.953Z,4572
2018-07-09T04:33:39.291Z,4152
2018-07-09T04:34:41.323Z,4288
2018-07-09T04:35:43.362Z,4004
2018-07-09T04:36:45.683Z,3936
2018-07-09T04:37:47.759Z,3884
2018-07-09T04:38:49.747Z,3688
2018-07-09T04:39:51.794Z,3952
2018-07-09T04:40:53.823Z,4312
2018-07-09T04:41:55.854Z,4684
2018-07-09T04:42:57.889Z,5732
2018-07-09T04:44:00.311Z,6120
2018-07-09T04:45:02.402Z,6368
2018-07-09T04:46:04.766Z,6556
2018-07-09T04:47:06.815Z,6672
2018-07-09T04:48:08.854Z,6776
2018-07-09T04:49:11.164Z,6956
2018-07-09T04:50:13.209Z,6968
2018-07-09T04:51:15.248Z,6872
2018-07-09T04:52:17.290Z,7120
2018-07-09T04:53:19.603Z,7040
2018-07-09T04:54:21.637Z,7044
2018-07-09T04:55:23.671Z,7092
2018-07-09T04:56:25.698Z,7120
2018-07-09T04:57:27.732Z,7244
2018-07-09T04:58:29.782Z,7384
2018-07-09T04:59:31.813Z,7520
2018-07-09T05:00:34.125Z,7416
2018-07-09T05:01:36.169Z,7444
2018-07-09T05:02:38.578Z,7520
2018-07-09T05:03:40.611Z,7496
2018-07-09T05:04:42.640Z,7468
2018-07-09T05:05:44.719Z,7344
2018-07-09T05:06:47.274Z,7368
2018-07-09T05:07:49.301Z,7236
2018-07-09T05:08:51.337Z,6992
2018-07-09T05:09:53.667Z,6684
2018-07-09T05:10:55.701Z,6280
2018-07-09T05:11:57.741Z,5880
2018-07-09T05:13:00.231Z,5432
2018-07-09T05:14:02.554Z,5112
2018-07-09T05:15:04.880Z,4708
2018-07-09T05:16:06.916Z,4316
2018-07-09T05:17:09.333Z,4068
2018-07-09T05:18:11.368Z,3880
2018-07-09T05:19:13.421Z,3752
2018-07-09T05:20:15.739Z,3780
2018-07-09T05:21:18.071Z,3700
2018-07-09T05:22:20.395Z,3480
2018-07-09T05:23:22.435Z,3672
2018-07-09T05:24:24.861Z,3904
2018-07-09T05:25:27.184Z,3444
2018-07-09T05:26:29.218Z,3348
2018-07-09T05:27:31.558Z,3568
2018-07-09T05:28:33.590Z,3540
2018-07-09T05:29:35.619Z,3800
2018-07-09T05:30:37.652Z,3596
2018-07-09T05:31:39.683Z,3752
2018-07-09T05:32:41.715Z,3848
2018-07-09T05:33:43.760Z,3476
2018-07-09T05:34:45.790Z,3708
2018-07-09T05:35:48.219Z,4036
2018-07-09T05:36:50.537Z,4136
2018-07-09T05:37:52.572Z,4236
2018-07-09T05:38:54.614Z,4668
2018-07-09T05:39:56.675Z,4988
2018-07-09T05:40:59.024Z,4184
2018-07-09T05:42:01.349Z,4320
2018-07-09T05:43:03.767Z,5136
2018-07-09T05:44:05.804Z,6648
2018-07-09T05:45:08.120Z,6420
2018-07-09T05:46:10.161Z,6764
2018-07-09T05:47:12.492Z,8944
2018-07-09T05:48:14.526Z,10084
2018-07-09T05:49:16.562Z,9332
2018-07-09T05:50:18.598Z,9692
2018-07-09T05:51:20.643Z,9880
2018-07-09T05:52:22.679Z,11004
2018-07-09T05:53:24.749Z,10340
2018-07-09T05:54:26.747Z,11868
2018-07-09T05:55:29.067Z,9200
2018-07-09T05:56:31.109Z,7360
2018-07-09T05:57:33.424Z,6948
2018-07-09T05:58:35.851Z,7068
2018-07-09T05:59:37.935Z,7220
2018-07-09T06:00:39.972Z,9152
2018-07-09T06:01:42.379Z,10696
2018-07-09T06:02:44.434Z,8812
2018-07-09T06:03:46.853Z,7912
2018-07-09T06:04:48.888Z,9928
2018-07-09T06:05:50.928Z,10848
2018-07-09T06:06:53.272Z,10252
2018-07-09T06:07:55.308Z,7116
2018-07-09T06:08:57.350Z,6416
2018-07-09T06:09:59.369Z,6260
2018-07-09T06:11:01.444Z,7688
2018-07-09T06:12:03.784Z,7708
2018-07-09T06:13:06.132Z,8024
2018-07-09T06:14:08.161Z,8236
2018-07-09T06:15:10.201Z,7964
2018-07-09T06:16:12.233Z,7544
2018-07-09T06:17:14.277Z,7552
2018-07-09T06:18:16.698Z,6904
2018-07-09T06:19:18.768Z,7040
2018-07-09T06:20:20.777Z,6752
2018-07-09T06:21:22.822Z,6324
2018-07-09T06:22:24.858Z,6532
2018-07-09T06:23:26.898Z,6292
2018-07-09T06:24:28.931Z,6272
2018-07-09T06:25:31.085Z,6600
2018-07-09T06:26:33.892Z,6708
2018-07-09T06:27:35.926Z,7400
2018-07-09T06:28:37.953Z,6876
2018-07-09T06:29:40.279Z,7340
2018-07-09T06:30:42.322Z,7252
2018-07-09T06:31:44.367Z,6812
2018-07-09T06:32:46.794Z,7300
2018-07-09T06:33:48.830Z,7452
2018-07-09T06:34:50.867Z,6948
2018-07-09T06:35:52.919Z,6300
2018-07-09T06:36:54.946Z,6268
2018-07-09T06:37:56.977Z,6872
2018-07-09T06:38:59.303Z,9372
2018-07-09T06:40:01.340Z,10904
2018-07-09T06:41:03.813Z,11360
2018-07-09T06:42:06.130Z,10304
2018-07-09T06:43:08.168Z,11044
2018-07-09T06:44:10.492Z,11444
2018-07-09T06:45:13.096Z,12848
2018-07-09T06:46:15.139Z,14624
2018-07-09T06:47:17.176Z,14488
2018-07-09T06:48:19.235Z,14116
2018-07-09T06:49:22.053Z,15096
2018-07-09T06:50:24.098Z,14720
2018-07-09T06:51:26.511Z,13144
2018-07-09T06:52:28.537Z,12384
2018-07-09T06:53:30.853Z,11664
2018-07-09T06:54:33.294Z,11968
2018-07-09T06:55:35.338Z,12016
2018-07-09T06:56:37.370Z,11340
2018-07-09T06:57:39.696Z,8852
2018-07-09T06:58:42.036Z,11208
2018-07-09T06:59:44.076Z,12912
2018-07-09T07:00:46.107Z,14128
2018-07-09T07:01:48.156Z,16004
2018-07-09T07:02:50.584Z,17568
2018-07-09T07:03:52.611Z,16924
2018-07-09T07:04:54.652Z,15692
2018-07-09T07:05:56.691Z,14864
2018-07-09T07:06:58.734Z,15708
2018-07-09T07:08:00.778Z,14476
2018-07-09T07:09:02.874Z,14576
2018-07-09T07:10:04.874Z,14424
2018-07-09T07:11:07.220Z,14536
2018-07-09T07:12:09.537Z,14312
2018-07-09T07:13:11.570Z,14196
2018-07-09T07:14:13.615Z,13244
2018-07-09T07:15:15.694Z,13500
2018-07-09T07:16:17.697Z,14300
2018-07-09T07:17:19.727Z,15836
2018-07-09T07:18:21.779Z,15224
2018-07-09T07:19:23.808Z,16188
2018-07-09T07:20:25.855Z,15072
2018-07-09T07:21:28.181Z,13784
2018-07-09T07:22:30.224Z,14656
2018-07-09T07:23:32.257Z,15916
2018-07-09T07:24:34.303Z,14896
2018-07-09T07:25:36.609Z,12864
2018-07-09T07:26:38.949Z,10416
2018-07-09T07:27:40.990Z,9340
2018-07-09T07:28:43.040Z,9004
2018-07-09T07:29:45.365Z,8416
2018-07-09T07:30:47.398Z,8080
2018-07-09T07:31:49.448Z,7564
2018-07-09T07:32:51.569Z,7536
2018-07-09T07:33:53.511Z,7592
2018-07-09T07:34:55.891Z,6844
2018-07-09T07:35:57.946Z,6640
2018-07-09T07:36:59.973Z,6808
2018-07-09T07:38:02.010Z,7044
2018-07-09T07:39:04.333Z,8452
2018-07-09T07:40:06.676Z,8608
2018-07-09T07:41:08.710Z,9324
2018-07-09T07:42:10.761Z,10256
2018-07-09T07:43:12.797Z,11420
2018-07-09T07:44:14.827Z,10564
2018-07-09T07:45:16.869Z,10836
2018-07-09T07:46:18.908Z,9940
2018-07-09T07:47:20.953Z,10500
2018-07-09T07:48:22.984Z,11080
2018-07-09T07:49:25.020Z,11828
2018-07-09T07:50:27.738Z,12768
2018-07-09T07:51:30.248Z,13012
2018-07-09T07:52:32.311Z,15240
2018-07-09T07:53:35.012Z,16208
2018-07-09T07:54:37.051Z,15012
2018-07-09T07:55:39.090Z,15800
2018-07-09T07:56:41.126Z,15240
2018-07-09T07:57:43.168Z,14844
2018-07-09T07:58:45.220Z,14208
2018-07-09T07:59:47.277Z,13196
2018-07-09T08:00:49.585Z,12440
2018-07-09T08:01:51.934Z,12036
2018-07-09T08:02:54.000Z,12488
2018-07-09T08:03:56.779Z,11184
2018-07-09T08:04:59.102Z,9720
2018-07-09T08:06:01.145Z,9860
2018-07-09T08:07:03.585Z,11100
2018-07-09T08:08:05.619Z,11308
2018-07-09T08:09:07.665Z,10700
2018-07-09T08:10:09.736Z,11428
2018-07-09T08:11:12.140Z,11988
2018-07-09T08:13:00.533Z,11036
2018-07-09T08:14:03.257Z,12668
2018-07-09T08:15:05.303Z,14240
2018-07-09T08:16:07.346Z,17652
2018-07-09T08:17:09.672Z,17680
2018-07-09T08:18:11.718Z,17216
2018-07-09T08:19:13.759Z,13568
2018-07-09T08:20:15.797Z,12896
2018-07-09T08:21:18.135Z,12952
2018-07-09T08:22:20.177Z,13792
2018-07-09T08:23:22.230Z,16612
2018-07-09T08:24:24.353Z,16712
2018-07-09T08:25:26.726Z,17980
2018-07-09T08:26:29.145Z,17412
2018-07-09T08:27:31.220Z,15592
2018-07-09T08:28:33.238Z,16612
2018-07-09T08:29:35.289Z,18592
2018-07-09T08:30:37.320Z,17608
2018-07-09T08:31:39.650Z,15572
2018-07-09T08:32:41.687Z,12864
2018-07-09T08:33:43.719Z,11648
2018-07-09T08:34:45.789Z,10008
2018-07-09T08:35:48.118Z,9936
2018-07-09T08:36:50.442Z,10776
2018-07-09T08:37:52.507Z,12628
2018-07-09T08:38:54.530Z,14572
2018-07-09T08:39:56.874Z,15552
2018-07-09T08:40:58.915Z,18976
2018-07-09T08:42:01.238Z,24416
2018-07-09T08:43:03.278Z,24160
2018-07-09T08:44:05.599Z,16752
2018-07-09T08:45:07.650Z,14768
2018-07-09T08:46:10.286Z,19808
2018-07-09T08:47:12.338Z,23264
2018-07-09T08:48:14.385Z,27424
2018-07-09T08:49:16.414Z,26240
2018-07-09T08:50:18.845Z,25184
2018-07-09T08:51:21.273Z,35904
2018-07-09T08:52:23.594Z,38624
2018-07-09T08:53:25.641Z,35136
2018-07-09T08:54:27.689Z,34976
2018-07-09T08:55:29.734Z,32832
2018-07-09T08:56:32.056Z,71168
2018-07-09T08:57:34.094Z,37440
2018-07-09T08:58:36.135Z,51136
2018-07-09T08:59:38.853Z,124896
2018-07-09T09:00:40.891Z,38816
2018-07-09T09:01:42.933Z,56192
2018-07-09T09:02:44.977Z,112896
2018-07-09T09:03:47.338Z,91872
2018-07-09T09:04:49.353Z,97536
2018-07-09T09:05:51.391Z,101088
2018-07-09T09:06:53.442Z,93920
2018-07-09T09:07:55.484Z,84160
2018-07-09T09:08:57.527Z,93728
2018-07-09T09:09:59.605Z,89824
2018-07-09T09:11:02.009Z,97216
2018-07-09T09:12:04.355Z,96864
2018-07-09T09:13:06.393Z,21632
2018-07-09T09:14:08.429Z,22272
2018-07-09T09:15:10.490Z,99648
2018-07-09T09:16:12.519Z,103264
2018-07-09T09:17:14.569Z,93120
2018-07-09T09:18:17.181Z,113696
2018-07-09T09:19:19.234Z,119360
2018-07-09T09:20:21.274Z,66976
2018-07-09T09:21:23.306Z,35040
2018-07-09T09:22:25.363Z,107968
2018-07-09T09:23:27.404Z,113248
2018-07-09T09:24:29.450Z,99552
2018-07-09T09:25:31.569Z,117696
2018-07-09T09:26:33.547Z,102720
2018-07-09T09:27:35.585Z,105184
2018-07-09T09:28:37.640Z,110944
2018-07-09T09:29:39.667Z,108000
2018-07-09T09:30:41.725Z,99936
2018-07-09T09:31:43.765Z,22240
2018-07-09T09:32:45.808Z,22752
2018-07-09T09:33:47.858Z,25024
2018-07-09T09:34:49.899Z,68384
2018-07-09T09:35:51.946Z,114720
2018-07-09T09:36:53.990Z,112896
2018-07-09T09:37:56.315Z,119616
2018-07-09T09:38:58.377Z,118912
2018-07-09T09:40:00.413Z,34976
2018-07-09T09:41:02.476Z,32512
2018-07-09T09:42:04.527Z,30944
2018-07-09T09:43:06.914Z,57792
2018-07-09T09:44:08.905Z,36768
2018-07-09T09:45:11.335Z,36224
2018-07-09T09:46:13.683Z,35328
2018-07-09T09:47:15.733Z,41056
2018-07-09T09:48:18.062Z,29184
2018-07-09T09:49:20.431Z,138880
2018-07-09T09:50:22.452Z,85728
2018-07-09T09:51:25.092Z,36192
2018-07-09T09:52:27.425Z,60800
2018-07-09T09:53:29.770Z,29664
2018-07-09T09:54:31.826Z,117024
2018-07-09T09:55:33.868Z,115520
2018-07-09T09:56:35.916Z,113312
2018-07-09T09:57:38.574Z,116640
2018-07-09T09:58:40.609Z,125152
2018-07-09T09:59:42.655Z,129504
2018-07-09T10:00:44.706Z,128736
2018-07-09T10:01:47.029Z,125664
2018-07-09T10:02:49.066Z,126976
2018-07-09T10:03:51.105Z,127232
2018-07-09T10:04:53.472Z,110688
2018-07-09T10:05:55.517Z,136096
2018-07-09T10:06:57.560Z,30176
2018-07-09T10:07:59.897Z,29792
2018-07-09T10:09:01.941Z,32864
2018-07-09T10:10:03.986Z,41824
2018-07-09T10:11:06.032Z,85568
2018-07-09T10:12:08.095Z,35744
2018-07-09T10:13:10.145Z,128160
2018-07-09T10:14:12.195Z,131072
2018-07-09T10:15:14.248Z,139008
2018-07-09T10:16:16.295Z,92288
2018-07-09T10:17:18.343Z,147104
2018-07-09T10:18:20.398Z,139968
2018-07-09T10:19:22.729Z,43584
2018-07-09T10:20:24.776Z,116768
2018-07-09T10:21:26.831Z,126048
2018-07-09T10:22:28.886Z,125344
2018-07-09T10:23:30.982Z,123520
2018-07-09T10:24:32.984Z,87360
2018-07-09T10:25:35.039Z,35104
2018-07-09T10:26:37.081Z,42688
2018-07-09T10:27:39.128Z,33568
2018-07-09T10:28:41.179Z,26048
2018-07-09T10:29:43.218Z,25984
2018-07-09T10:30:45.269Z,120992
2018-07-09T10:31:47.318Z,34080
2018-07-09T10:32:49.365Z,125376
2018-07-09T10:33:51.701Z,82816
2018-07-09T10:34:53.745Z,111200
2018-07-09T10:35:55.790Z,112800
2018-07-09T10:36:57.848Z,123232
2018-07-09T10:37:59.896Z,120704
2018-07-09T10:39:01.948Z,121024
2018-07-09T10:40:04.000Z,130112
2018-07-09T10:41:06.061Z,38848
2018-07-09T10:42:08.401Z,33696
2018-07-09T10:43:10.445Z,35712
2018-07-09T10:44:12.500Z,114720
2018-07-09T10:45:14.560Z,35072
2018-07-09T10:46:16.985Z,31424
2018-07-09T10:47:19.423Z,34304
2018-07-09T10:48:21.469Z,123680
2018-07-09T10:49:23.901Z,128128
2018-07-09T10:50:25.960Z,46528
2018-07-09T10:51:27.997Z,41632
2018-07-09T10:52:30.350Z,55392
2018-07-09T10:53:32.401Z,30784
2018-07-09T10:54:34.441Z,27552
2018-07-09T10:55:36.490Z,29472
2018-07-09T10:56:38.546Z,33440
2018-07-09T10:57:40.594Z,40512
2018-07-09T10:58:42.636Z,35136
2018-07-09T10:59:44.689Z,61472
2018-07-09T11:00:46.813Z,38176
2018-07-09T11:01:48.796Z,67872
2018-07-09T11:02:51.146Z,39648
2018-07-09T11:03:53.181Z,36448
2018-07-09T11:04:55.826Z,27904
2018-07-09T11:05:57.880Z,24992
2018-07-09T11:07:00.314Z,28320
2018-07-09T11:08:02.370Z,43200
2018-07-09T11:09:04.706Z,34016
2018-07-09T11:10:06.753Z,39008
2018-07-09T11:11:08.805Z,23360
2018-07-09T11:12:11.126Z,19072
2018-07-09T11:13:13.472Z,15176
2018-07-09T11:14:15.519Z,12720
2018-07-09T11:15:17.567Z,11488
2018-07-09T11:16:19.687Z,11364
2018-07-09T11:17:22.567Z,12416
2018-07-09T11:18:24.887Z,15996
2018-07-09T11:19:26.944Z,24384
2018-07-09T11:20:28.987Z,51552
2018-07-09T11:21:31.046Z,88640
2018-07-09T11:22:33.081Z,47040
2018-07-09T11:23:35.120Z,39136
2018-07-09T11:24:37.180Z,33856
2018-07-09T11:25:39.216Z,38624
2018-07-09T11:26:41.670Z,114144
2018-07-09T11:27:43.724Z,110208
2018-07-09T11:28:45.772Z,115648
2018-07-09T11:29:47.822Z,33664
2018-07-09T11:30:49.866Z,28736
2018-07-09T11:31:52.502Z,23744
2018-07-09T11:32:54.566Z,20960
2018-07-09T11:33:56.610Z,20768
2018-07-09T11:34:59.177Z,22048
2018-07-09T11:36:01.271Z,30336
2018-07-09T11:37:03.290Z,31296
2018-07-09T11:38:05.338Z,66304
2018-07-09T11:39:07.381Z,89920
2018-07-09T11:40:09.440Z,94784
2018-07-09T11:41:11.482Z,85184
2018-07-09T11:42:13.539Z,72032
2018-07-09T11:43:15.575Z,40832
2018-07-09T11:44:17.937Z,95232
2018-07-09T11:45:19.989Z,85536
2018-07-09T11:46:22.025Z,60672
2018-07-09T11:47:24.076Z,73376
2018-07-09T11:48:26.123Z,134912
2018-07-09T11:49:28.168Z,137728
2018-07-09T11:50:30.215Z,129216
2018-07-09T11:51:32.943Z,134752
2018-07-09T11:52:34.986Z,38560
2018-07-09T11:53:37.032Z,137536
2018-07-09T11:54:39.083Z,133152
2018-07-09T11:55:41.144Z,131168
2018-07-09T11:56:43.484Z,110688
2018-07-09T11:57:45.893Z,108832
2018-07-09T11:58:51.813Z,117280
2018-07-09T11:59:53.868Z,96064
2018-07-09T12:00:55.917Z,41408
2018-07-09T12:01:58.539Z,33792
2018-07-09T12:03:06.773Z,35040
2018-07-09T12:04:08.825Z,40352
2018-07-09T12:05:10.873Z,81120
2018-07-09T12:06:12.922Z,39136
2018-07-09T12:07:14.964Z,34400
2018-07-09T12:08:17.420Z,38112
2018-07-09T12:09:19.471Z,30240
2018-07-09T12:10:21.532Z,30496
2018-07-09T12:11:23.889Z,33664
2018-07-09T12:12:26.262Z,86272
2018-07-09T12:13:28.312Z,99808
2018-07-09T12:14:30.359Z,64224
2018-07-09T12:15:32.410Z,52448
2018-07-09T12:16:34.463Z,38464
2018-07-09T12:17:37.077Z,33120
2018-07-09T12:18:39.514Z,30912
2018-07-09T12:19:41.853Z,32032
2018-07-09T12:20:43.901Z,33408
2018-07-09T12:21:46.329Z,39584
2018-07-09T12:22:48.298Z,60896
2018-07-09T12:23:50.340Z,39264
2018-07-09T12:24:52.395Z,42400
2018-07-09T12:25:54.732Z,40672
2018-07-09T12:26:56.787Z,44192
2018-07-09T12:27:58.837Z,68992
2018-07-09T12:29:00.952Z,76288
2018-07-09T12:30:03.355Z,79136
2018-07-09T12:31:05.715Z,40160
2018-07-09T12:32:08.047Z,40384
2018-07-09T12:33:10.107Z,42464
2018-07-09T12:34:12.151Z,47552
2018-07-09T12:35:14.896Z,61024
2018-07-09T12:36:17.057Z,107392
2018-07-09T12:37:18.993Z,63040
2018-07-09T12:38:21.036Z,119040
2018-07-09T12:39:23.084Z,125440
2018-07-09T12:40:25.126Z,51712
2018-07-09T12:41:27.180Z,55552
2018-07-09T12:42:29.511Z,53952
2018-07-09T12:43:31.562Z,49952
2018-07-09T12:44:33.604Z,50784
2018-07-09T12:45:36.055Z,43968
2018-07-09T12:46:38.380Z,38272
2018-07-09T12:47:40.711Z,28448
2018-07-09T12:48:42.758Z,22496
2018-07-09T12:49:44.839Z,19648
2018-07-09T12:50:47.601Z,19808
2018-07-09T12:51:49.647Z,23264
2018-07-09T12:52:51.685Z,31680
2018-07-09T12:53:53.732Z,32384
2018-07-09T12:54:55.788Z,26304
2018-07-09T12:55:58.492Z,20992
2018-07-09T12:57:01.432Z,18560
2018-07-09T12:58:07.952Z,16224
2018-07-09T12:59:13.410Z,15596
2018-07-09T13:00:15.669Z,15828
2018-07-09T13:01:18.015Z,16340
2018-07-09T13:02:21.734Z,16796
2018-07-09T13:03:24.034Z,16396
2018-07-09T13:04:26.406Z,15732
2018-07-09T13:05:28.731Z,16280
2018-07-09T13:06:33.659Z,18720
2018-07-09T13:07:36.140Z,20800
2018-07-09T13:08:38.193Z,20256
2018-07-09T13:09:40.300Z,19712
2018-07-09T13:10:42.384Z,20672
2018-07-09T13:11:44.438Z,22368
2018-07-09T13:12:47.108Z,24864
2018-07-09T13:13:52.357Z,28128
2018-07-09T13:14:59.590Z,35296
2018-07-09T13:16:02.708Z,46464
2018-07-09T13:17:06.768Z,46656
2018-07-09T13:18:13.033Z,47872
2018-07-09T13:19:20.629Z,43680
2018-07-09T13:20:28.906Z,42848
2018-07-09T13:21:37.388Z,46688
2018-07-09T13:22:45.643Z,41280
2018-07-09T13:23:54.158Z,35808
2018-07-09T13:24:59.720Z,34208
2018-07-09T13:26:06.952Z,32416
2018-07-09T13:27:10.927Z,33088
2018-07-09T13:28:16.595Z,35456
2018-07-09T13:29:24.340Z,38624
2018-07-09T13:30:31.330Z,45408
2018-07-09T13:31:39.430Z,49312
2018-07-09T13:32:48.260Z,45504
2018-07-09T13:33:53.834Z,41856
2018-07-09T13:35:01.440Z,35808
2018-07-09T13:36:10.777Z,32992
2018-07-09T13:37:19.369Z,34240
2018-07-09T13:38:26.873Z,44672
2018-07-09T13:39:34.948Z,37216
2018-07-09T13:40:43.552Z,44832
2018-07-09T13:41:49.282Z,52608
2018-07-09T13:42:57.986Z,56320
2018-07-09T13:44:07.938Z,41024
2018-07-09T13:45:16.097Z,51200
2018-07-09T13:46:24.600Z,55520
2018-07-09T13:47:31.434Z,35424
2018-07-09T13:48:40.990Z,47264
2018-07-09T13:49:45.417Z,33344
2018-07-09T13:50:53.218Z,27936
2018-07-09T13:51:58.821Z,25856